Time;durP1;ratioP1;P1;durP2;ratioP2;P2;SDS_P1;SDS_P2;PMS_P1;PMS_P2;Temp;Humidity;BMP_temperature;BMP_pressure;BME280_temperature;BME280_humidity;BME280_pressure;Samples;Min_cycle;Max_cycle;Signal;HPM_P1;HPM_P2
2023/11/08 00:00:03;;;;;;;3.30;2.55;;;;;;;8.86;100.00;97632.59;1224555;75;2924263;-69
2023/11/08 00:02:36;;;;;;;2.75;2.10;;;;;;;8.92;100.00;97631.50;1223897;75;2927282;-69
2023/11/08 00:05:10;;;;;;;4.05;3.40;;;;;;;8.32;100.00;97622.25;1224697;75;2927069;-68
2023/11/08 00:07:43;;;;;;;4.45;3.25;;;;;;;8.49;100.00;97630.06;1224869;75;2921935;-69
2023/11/08 00:10:16;;;;;;;5.45;4.00;;;;;;;8.07;100.00;97637.00;1224294;75;2915918;-68
2023/11/08 00:12:48;;;;;;;5.00;3.80;;;;;;;8.21;100.00;97645.75;1223810;75;2921127;-69
2023/11/08 00:15:24;;;;;;;5.20;3.30;;;;;;;8.30;100.00;97640.28;1224881;75;2920473;-69
2023/11/08 00:17:57;;;;;;;4.30;2.90;;;;;;;8.43;100.00;97643.56;1224214;75;2929034;-69
2023/11/08 00:20:29;;;;;;;5.10;3.70;;;;;;;8.10;100.00;97644.28;1223458;75;2917034;-70
2023/11/08 00:23:02;;;;;;;5.30;3.50;;;;;;;8.02;100.00;97647.78;1225140;75;2915139;-68
2023/11/08 00:25:34;;;;;;;4.90;3.40;;;;;;;8.11;100.00;97655.94;1224251;75;2922821;-67
2023/11/08 00:28:07;;;;;;;4.15;3.15;;;;;;;8.11;100.00;97661.41;1223929;75;2921692;-67
2023/11/08 00:30:43;;;;;;;6.30;4.40;;;;;;;7.89;100.00;97673.25;1223948;75;2931483;-68
2023/11/08 00:33:16;;;;;;;4.20;3.80;;;;;;;8.26;100.00;97666.94;1224789;75;2920351;-68
2023/11/08 00:35:49;;;;;;;4.25;3.40;;;;;;;8.38;100.00;97676.91;1224976;75;2913595;-71
2023/11/08 00:38:22;;;;;;;6.50;4.05;;;;;;;7.85;100.00;97677.34;1225547;75;2921234;-69
2023/11/08 00:40:55;;;;;;;5.00;4.15;;;;;;;8.15;100.00;97669.41;1223595;75;2917567;-68
2023/11/08 00:43:27;;;;;;;4.25;3.30;;;;;;;8.53;100.00;97677.78;1223283;75;2922152;-68
2023/11/08 00:46:03;;;;;;;3.30;2.60;;;;;;;8.54;100.00;97675.84;1223699;75;2915718;-68
2023/11/08 00:48:36;;;;;;;3.10;2.35;;;;;;;8.71;100.00;97681.66;1223718;75;2919382;-70
2023/11/08 00:51:09;;;;;;;2.70;2.00;;;;;;;8.63;100.00;97681.22;1223921;75;2922877;-68
2023/11/08 00:53:42;;;;;;;2.35;1.85;;;;;;;8.65;100.00;97686.22;1224241;75;2926280;-68
2023/11/08 00:56:16;;;;;;;2.85;2.00;;;;;;;8.74;100.00;97684.22;1224684;75;2921927;-69
2023/11/08 00:58:48;;;;;;;2.90;2.30;;;;;;;8.30;100.00;97689.38;1224079;75;2917960;-67
2023/11/08 01:01:24;;;;;;;4.00;2.80;;;;;;;8.48;100.00;97688.56;1224741;75;2933106;-71
2023/11/08 01:03:57;;;;;;;3.05;2.45;;;;;;;8.61;100.00;97691.88;1224138;75;2929506;-70
2023/11/08 01:06:29;;;;;;;2.70;2.30;;;;;;;8.63;100.00;97688.66;1224899;75;2915917;-69
2023/11/08 01:09:02;;;;;;;5.55;3.40;;;;;;;8.11;100.00;97694.13;1221825;75;3039946;-69
2023/11/08 01:11:35;;;;;;;3.95;3.00;;;;;;;8.35;100.00;97696.94;1224183;75;2921215;-68
2023/11/08 01:14:08;;;;;;;3.50;2.40;;;;;;;8.53;100.00;97691.41;1224590;75;2920069;-70
2023/11/08 01:16:45;;;;;;;4.75;3.45;;;;;;;8.26;100.00;97694.22;1224774;75;2924982;-70
2023/11/08 01:19:18;;;;;;;3.70;2.80;;;;;;;8.39;100.00;97685.84;1224945;83;2920929;-68
2023/11/08 01:21:51;;;;;;;3.25;2.35;;;;;;;8.68;100.00;97693.50;1224652;75;2918050;-68
2023/11/08 01:24:24;;;;;;;3.40;1.90;;;;;;;8.50;100.00;97684.16;1224646;75;2920202;-68
2023/11/08 01:26:57;;;;;;;2.80;2.10;;;;;;;8.63;100.00;97686.69;1224574;75;2920659;-67
2023/11/08 01:29:32;;;;;;;2.00;1.70;;;;;;;8.77;100.00;97685.25;1225104;75;2917235;-69
2023/11/08 01:32:09;;;;;;;2.15;1.90;;;;;;;8.77;100.00;97681.78;1224571;75;2922937;-67
2023/11/08 01:34:42;;;;;;;2.25;1.55;;;;;;;8.64;100.00;97680.03;1224449;75;2931797;-69
2023/11/08 01:37:15;;;;;;;2.00;1.80;;;;;;;8.72;100.00;97683.16;1224224;75;2915913;-70
2023/11/08 01:39:47;;;;;;;2.50;1.85;;;;;;;8.77;100.00;97679.06;1224873;75;2917430;-68
2023/11/08 01:42:22;;;;;;;2.20;1.90;;;;;;;8.63;100.00;97681.22;1224658;75;2931370;-69
2023/11/08 01:44:55;;;;;;;2.10;1.90;;;;;;;8.42;100.00;97677.53;1224719;75;2920542;-70
2023/11/08 01:47:33;;;;;;;2.90;1.95;;;;;;;8.37;100.00;97672.69;1225443;75;2924132;-68
2023/11/08 01:50:09;;;;;;;3.75;2.95;;;;;;;8.21;100.00;97673.78;1224266;75;2917277;-70
2023/11/08 01:52:42;;;;;;;2.50;2.20;;;;;;;8.48;100.00;97677.66;1223736;75;2952354;-69
2023/11/08 01:55:14;;;;;;;2.90;2.05;;;;;;;8.29;100.00;97664.06;1223719;75;2918878;-70
2023/11/08 01:57:48;;;;;;;2.25;1.65;;;;;;;8.45;100.00;97668.44;1202201;75;4924316;-68
2023/11/08 02:00:23;;;;;;;2.25;2.05;;;;;;;8.50;100.00;97662.34;1225350;75;2918839;-68
2023/11/08 02:02:59;;;;;;;2.20;1.60;;;;;;;8.48;100.00;97658.56;1224646;75;2922887;-66
2023/11/08 02:05:33;;;;;;;1.40;1.25;;;;;;;8.26;100.00;97664.97;1224152;75;2932451;-68
2023/11/08 02:08:06;;;;;;;1.95;1.55;;;;;;;8.15;100.00;97664.69;1224890;75;2915288;-72
2023/11/08 02:10:39;;;;;;;2.20;1.90;;;;;;;8.22;100.00;97667.09;1224907;75;2923911;-71
2023/11/08 02:13:12;;;;;;;1.35;1.25;;;;;;;8.31;100.00;97664.34;1224854;75;2923982;-68
2023/11/08 02:15:45;;;;;;;1.30;1.20;;;;;;;8.26;100.00;97666.94;1224512;75;2921062;-68
2023/11/08 02:18:21;;;;;;;1.80;1.40;;;;;;;8.20;100.00;97672.28;1225154;75;2897411;-67
2023/11/08 02:20:54;;;;;;;1.35;1.25;;;;;;;8.14;100.00;97676.84;1224240;75;2928027;-68
2023/11/08 02:23:27;;;;;;;1.85;1.55;;;;;;;7.79;100.00;97679.94;1225216;75;2911748;-68
2023/11/08 02:26:03;;;;;;;4.65;1.65;;;;;;;7.64;100.00;97677.06;1223814;75;2922671;-69
2023/11/08 02:28:36;;;;;;;1.95;1.40;;;;;;;7.67;100.00;97675.38;1224254;75;2926843;-70
2023/11/08 02:31:08;;;;;;;1.30;1.20;;;;;;;7.82;100.00;97681.75;1223678;75;2925965;-67
2023/11/08 02:33:41;;;;;;;1.55;1.15;;;;;;;7.83;100.00;97680.53;1224450;75;2920166;-71
2023/11/08 02:36:14;;;;;;;2.65;1.90;;;;;;;7.16;100.00;97681.44;1224895;75;2921714;-68
2023/11/08 02:38:47;;;;;;;2.90;2.20;;;;;;;7.49;100.00;97684.34;1225443;75;2917261;-69
2023/11/08 02:41:22;;;;;;;2.30;1.75;;;;;;;7.34;100.00;97684.19;1225169;75;2916682;-68
2023/11/08 02:43:56;;;;;;;2.80;1.70;;;;;;;7.63;100.00;97681.00;1225060;83;2924939;-67
2023/11/08 02:46:30;;;;;;;2.65;2.00;;;;;;;7.51;100.00;97679.19;1224368;75;2927994;-68
2023/11/08 02:49:03;;;;;;;3.15;2.40;;;;;;;7.59;100.00;97690.53;1225274;75;2926182;-66
2023/11/08 02:51:36;;;;;;;3.00;2.70;;;;;;;7.37;100.00;97687.97;1224700;75;2923786;-68
2023/11/08 02:54:09;;;;;;;3.90;3.05;;;;;;;7.14;100.00;97690.03;1224607;75;2921175;-68
2023/11/08 02:56:45;;;;;;;5.25;4.00;;;;;;;6.84;100.00;97694.38;1224971;75;2921492;-68
2023/11/08 02:59:19;;;;;;;8.40;3.65;;;;;;;6.96;100.00;97690.78;1224993;75;2917715;-70
2023/11/08 03:01:52;;;;;;;3.75;2.90;;;;;;;7.09;100.00;97693.34;1224816;75;2931702;-67
2023/11/08 03:04:25;;;;;;;3.15;2.25;;;;;;;7.28;100.00;97687.94;1220623;75;3090386;-67
2023/11/08 03:06:57;;;;;;;2.50;2.20;;;;;;;7.27;100.00;97686.44;1224932;75;2885789;-68
2023/11/08 03:09:30;;;;;;;2.25;1.80;;;;;;;7.24;100.00;97691.59;1224313;75;2920151;-69
2023/11/08 03:12:05;;;;;;;1.70;1.50;;;;;;;7.14;100.00;97694.72;1223405;75;2920214;-69
2023/11/08 03:14:39;;;;;;;1.90;1.60;;;;;;;6.89;100.00;97701.94;1224416;75;2917034;-67
2023/11/08 03:17:12;;;;;;;1.60;1.40;;;;;;;6.95;100.00;97705.59;1225033;75;2923430;-68
2023/11/08 03:19:45;;;;;;;1.75;1.30;;;;;;;6.79;100.00;97722.16;1224908;75;2921059;-67
2023/11/08 03:22:19;;;;;;;2.00;1.40;;;;;;;6.53;100.00;97727.06;1225260;75;2914632;-67
2023/11/08 03:24:52;;;;;;;1.50;1.25;;;;;;;6.74;100.00;97728.19;1224861;75;2921708;-70
2023/11/08 03:27:27;;;;;;;1.40;1.30;;;;;;;6.75;100.00;97735.91;1224616;75;2918380;-70
2023/11/08 03:30:00;;;;;;;1.55;1.05;;;;;;;6.77;100.00;97730.03;1224710;75;2916412;-69
2023/11/08 03:32:33;;;;;;;1.10;0.90;;;;;;;6.64;100.00;97734.78;1225248;75;2935598;-68
2023/11/08 03:35:06;;;;;;;1.10;0.90;;;;;;;6.57;100.00;97728.44;1225069;75;2920150;-68
2023/11/08 03:37:39;;;;;;;1.20;1.00;;;;;;;6.45;100.00;97728.53;1225447;75;2914134;-69
2023/11/08 03:40:15;;;;;;;1.05;0.95;;;;;;;6.38;100.00;97727.59;1224519;75;2916908;-70
2023/11/08 03:42:50;;;;;;;1.40;1.30;;;;;;;6.14;100.00;97745.56;1224455;75;2913752;-68
2023/11/08 03:45:23;;;;;;;2.00;1.80;;;;;;;6.01;100.00;97747.56;1224940;75;2919595;-68
2023/11/08 03:47:55;;;;;;;2.70;2.35;;;;;;;5.88;100.00;97763.91;1224904;75;2916869;-67
2023/11/08 03:50:28;;;;;;;4.50;2.40;;;;;;;5.61;100.00;97773.34;1224852;75;2919617;-68
2023/11/08 03:53:01;;;;;;;3.85;2.50;;;;;;;5.34;100.00;97790.91;1224145;75;2918079;-67
2023/11/08 03:55:33;;;;;;;3.80;2.85;;;;;;;5.49;100.00;97798.59;1224731;75;2924700;-67
2023/11/08 03:58:08;;;;;;;2.35;2.15;;;;;;;5.86;100.00;97798.91;1224358;75;2924150;-68
2023/11/08 04:00:41;;;;;;;2.20;1.90;;;;;;;5.78;100.00;97792.97;1224123;75;2950534;-67
2023/11/08 04:03:14;;;;;;;2.45;1.85;;;;;;;5.94;100.00;97797.50;1224294;75;2921684;-67
2023/11/08 04:05:46;;;;;;;1.90;1.60;;;;;;;5.89;100.00;97798.03;1223994;75;2957115;-69
2023/11/08 04:08:20;;;;;;;1.55;1.40;;;;;;;5.87;100.00;97795.78;1224501;75;2930949;-70
2023/11/08 04:10:52;;;;;;;1.35;1.25;;;;;;;5.77;100.00;97799.59;1225251;75;2918420;-68
2023/11/08 04:13:27;;;;;;;3.10;1.70;;;;;;;5.58;100.00;97798.69;1224100;75;2953763;-68
2023/11/08 04:16:00;;;;;;;1.55;1.35;;;;;;;5.60;100.00;97800.94;1224678;75;2913723;-67
2023/11/08 04:18:33;;;;;;;1.45;1.30;;;;;;;5.55;100.00;97800.28;1223680;75;2923847;-67
2023/11/08 04:21:06;;;;;;;1.20;1.10;;;;;;;5.68;100.00;97807.69;1224331;75;2922182;-67
2023/11/08 04:23:39;;;;;;;2.25;1.60;;;;;;;5.54;100.00;97806.94;1224549;75;2920002;-68
2023/11/08 04:26:12;;;;;;;1.10;1.00;;;;;;;5.58;100.00;97806.06;1224416;75;2919819;-68
2023/11/08 04:28:47;;;;;;;1.55;1.10;;;;;;;5.55;100.00;97813.13;1223475;75;2930263;-68
2023/11/08 04:31:20;;;;;;;1.50;1.30;;;;;;;5.44;100.00;97807.28;1225110;75;2918886;-68
2023/11/08 04:33:53;;;;;;;1.75;1.20;;;;;;;5.47;100.00;97811.84;1224998;75;2922916;-67
2023/11/08 04:36:26;;;;;;;1.00;0.90;;;;;;;5.36;100.00;97814.88;1223444;75;2936539;-69
2023/11/08 04:38:59;;;;;;;1.00;0.95;;;;;;;5.14;100.00;97822.94;1224352;75;2923293;-69
2023/11/08 04:41:32;;;;;;;1.40;1.20;;;;;;;4.97;100.00;97822.28;1223567;75;2919048;-68
2023/11/08 04:44:08;;;;;;;1.90;1.50;;;;;;;4.88;100.00;97828.38;1223678;75;2935236;-67
2023/11/08 04:46:43;;;;;;;2.45;1.60;;;;;;;4.83;100.00;97833.56;1223738;75;2923385;-68
2023/11/08 04:49:16;;;;;;;1.60;1.35;;;;;;;4.94;100.00;97836.72;1222938;75;2924330;-68
2023/11/08 04:51:49;;;;;;;1.45;1.25;;;;;;;5.07;100.00;97839.44;1222994;75;2929319;-67
2023/11/08 04:54:21;;;;;;;1.40;1.30;;;;;;;5.05;100.00;97847.25;1223235;75;2915304;-68
2023/11/08 04:56:54;;;;;;;1.50;1.40;;;;;;;5.03;100.00;97841.50;1222904;75;2936175;-66
2023/11/08 04:59:29;;;;;;;1.60;1.30;;;;;;;4.85;100.00;97834.63;1223169;75;2922710;-67
2023/11/08 05:02:02;;;;;;;2.15;1.95;;;;;;;4.68;100.00;97842.09;1223340;75;2922260;-68
2023/11/08 05:04:35;;;;;;;2.90;2.30;;;;;;;4.72;100.00;97838.56;1221547;75;2925697;-66
2023/11/08 05:07:09;;;;;;;1.85;1.70;;;;;;;4.99;100.00;97835.44;1222449;75;2926576;-68
2023/11/08 05:09:43;;;;;;;1.60;1.40;;;;;;;4.99;100.00;97838.91;1223597;75;2939092;-70
2023/11/08 05:12:16;;;;;;;1.20;1.10;;;;;;;5.00;100.00;97839.66;1222689;75;2938320;-68
2023/11/08 05:14:53;;;;;;;1.20;1.00;;;;;;;4.75;100.00;97843.84;1222158;75;2929058;-69
2023/11/08 05:17:25;;;;;;;2.35;1.90;;;;;;;4.38;100.00;97854.19;1222539;75;2924543;-68
2023/11/08 05:19:58;;;;;;;3.55;2.50;;;;;;;4.53;100.00;97854.56;1223282;75;2926466;-68
2023/11/08 05:22:32;;;;;;;3.35;2.50;;;;;;;4.80;100.00;97848.75;1223481;75;2929889;-67
2023/11/08 05:25:06;;;;;;;5.85;4.80;;;;;;;4.66;100.00;97851.88;1222689;75;2926944;-67
2023/11/08 05:27:39;;;;;;;4.95;4.45;;;;;;;4.67;100.00;97845.25;1223273;75;2930778;-66
2023/11/08 05:30:15;;;;;;;4.90;3.80;;;;;;;4.74;100.00;97839.63;1223806;75;2921722;-67
2023/11/08 05:32:48;;;;;;;5.10;4.60;;;;;;;4.76;100.00;97845.38;1223844;75;2926730;-67
2023/11/08 05:35:21;;;;;;;5.90;4.75;;;;;;;4.67;100.00;97854.16;1224438;75;2924499;-67
2023/11/08 05:37:54;;;;;;;8.75;7.55;;;;;;;4.28;100.00;97855.22;1222353;75;2925743;-68
2023/11/08 05:40:26;;;;;;;8.25;6.75;;;;;;;4.39;100.00;97861.13;1223816;75;2939737;-69
2023/11/08 05:43:00;;;;;;;6.95;5.50;;;;;;;4.31;100.00;97869.88;1224003;75;2931611;-67
2023/11/08 05:45:36;;;;;;;5.15;4.65;;;;;;;3.93;100.00;97881.31;1224206;75;2931445;-68
2023/11/08 05:48:09;;;;;;;4.35;3.60;;;;;;;3.97;100.00;97888.16;1224647;75;2919700;-68
2023/11/08 05:50:43;;;;;;;3.40;3.05;;;;;;;4.11;100.00;97887.00;1225036;75;2920909;-69
2023/11/08 05:53:17;;;;;;;3.15;2.65;;;;;;;4.07;100.00;97888.31;1223715;75;2947404;-68
2023/11/08 05:55:49;;;;;;;3.30;2.40;;;;;;;4.17;100.00;97889.97;1223794;75;2924921;-71
2023/11/08 05:58:22;;;;;;;2.40;2.20;;;;;;;4.27;100.00;97891.66;1224139;75;2924213;-68
2023/11/08 06:00:57;;;;;;;1.95;1.75;;;;;;;4.32;100.00;97884.94;1224275;75;2920350;-67
2023/11/08 06:03:30;;;;;;;1.55;1.45;;;;;;;4.37;100.00;97892.56;1224366;75;2919700;-66
2023/11/08 06:06:03;;;;;;;1.65;1.40;;;;;;;4.46;100.00;97898.13;1224157;75;2924313;-71
2023/11/08 06:08:36;;;;;;;2.20;1.80;;;;;;;4.10;100.00;97903.72;1224081;75;2940340;-68
2023/11/08 06:11:14;;;;;;;3.90;2.40;;;;;;;4.31;100.00;97905.13;1224404;75;2918576;-67
2023/11/08 06:13:48;;;;;;;13.00;8.60;;;;;;;4.09;100.00;97927.34;1224597;75;2920098;-67
2023/11/08 06:16:23;;;;;;;11.70;9.55;;;;;;;4.12;100.00;97933.84;1224218;75;2926116;-68
2023/11/08 06:18:56;;;;;;;9.10;8.15;;;;;;;4.26;100.00;97928.06;1223986;75;2927050;-68
2023/11/08 06:21:30;;;;;;;7.75;6.55;;;;;;;4.37;100.00;97919.66;1223799;75;2928400;-68
2023/11/08 06:24:04;;;;;;;6.15;5.55;;;;;;;4.58;100.00;97927.22;1224209;75;2935242;-68
2023/11/08 06:26:37;;;;;;;4.60;3.85;;;;;;;4.79;100.00;97925.88;1224259;75;2932802;-67
2023/11/08 06:29:09;;;;;;;4.25;3.50;;;;;;;4.89;100.00;97935.69;1224740;75;2929324;-68
2023/11/08 06:31:45;;;;;;;4.15;3.60;;;;;;;5.04;100.00;97921.72;1223687;75;2931317;-67
2023/11/08 06:34:17;;;;;;;4.35;3.30;;;;;;;5.04;100.00;97925.19;1225033;75;2927118;-67
2023/11/08 06:36:50;;;;;;;3.45;3.00;;;;;;;5.17;100.00;97936.06;1225205;75;2925347;-69
2023/11/08 06:39:22;;;;;;;2.80;2.50;;;;;;;5.20;100.00;97931.72;1224777;75;2940424;-68
2023/11/08 06:41:55;;;;;;;3.20;2.65;;;;;;;5.13;100.00;97955.16;1223467;75;2926033;-67
2023/11/08 06:44:28;;;;;;;3.00;2.50;;;;;;;5.00;100.00;97948.94;1224303;75;2918928;-69
2023/11/08 06:47:03;;;;;;;3.45;3.15;;;;;;;4.83;100.00;97961.78;1224723;75;2922384;-66
2023/11/08 06:49:37;;;;;;;4.10;3.40;;;;;;;5.26;100.00;97957.13;1224136;75;2938775;-69
2023/11/08 06:52:10;;;;;;;2.80;2.50;;;;;;;5.48;100.00;97949.88;1224402;75;2924707;-67
2023/11/08 06:54:44;;;;;;;5.35;4.10;;;;;;;5.09;100.00;97972.72;1224647;75;2922040;-70
2023/11/08 06:57:17;;;;;;;4.40;3.90;;;;;;;5.48;100.00;97960.75;1224816;75;2919139;-69
2023/11/08 06:59:50;;;;;;;3.80;3.00;;;;;;;5.97;100.00;97965.09;1225369;75;2921833;-69
2023/11/08 07:02:25;;;;;;;2.85;2.25;;;;;;;5.83;100.00;97968.25;1225323;75;2921688;-69
2023/11/08 07:04:58;;;;;;;3.05;2.60;;;;;;;6.20;100.00;97980.28;1225286;75;2926280;-68
2023/11/08 07:07:30;;;;;;;3.10;2.70;;;;;;;6.22;100.00;97977.88;1218066;75;2918675;-68
2023/11/08 07:10:05;;;;;;;3.05;2.75;;;;;;;6.04;100.00;97981.19;1224683;75;2918811;-68
2023/11/08 07:12:38;;;;;;;3.50;3.05;;;;;;;6.17;100.00;97984.63;1225120;75;2918791;-69
2023/11/08 07:15:12;;;;;;;4.15;3.00;;;;;;;7.54;100.00;97982.63;1223723;75;2918376;-68
2023/11/08 07:17:47;;;;;;;3.35;3.05;;;;;;;13.68;88.91;97987.38;1222913;75;2930421;-68
2023/11/08 07:20:20;;;;;;;4.30;3.90;;;;;;;13.89;73.13;97987.28;1222461;75;2924819;-69
2023/11/08 07:22:53;;;;;;;8.45;7.00;;;;;;;16.57;63.18;97982.72;1224711;75;2927495;-70
2023/11/08 07:25:26;;;;;;;7.35;5.75;;;;;;;16.57;60.15;97985.47;1223886;75;2919565;-69
2023/11/08 07:27:58;;;;;;;6.25;4.90;;;;;;;17.68;57.55;97988.09;1223549;75;2927352;-70
2023/11/08 07:30:31;;;;;;;4.05;3.40;;;;;;;19.48;52.92;97990.03;1224553;75;2926047;-71
2023/11/08 07:33:06;;;;;;;3.05;2.75;;;;;;;21.26;48.64;97992.03;1224454;75;2923569;-69
2023/11/08 07:35:41;;;;;;;3.25;2.60;;;;;;;21.35;46.59;97985.25;1224651;75;2922404;-70
2023/11/08 07:38:14;;;;;;;2.85;2.40;;;;;;;22.83;44.92;97987.28;1223707;75;2924503;-68
2023/11/08 07:40:47;;;;;;;4.80;2.65;;;;;;;20.13;48.59;97985.97;1224657;75;2917378;-68
2023/11/08 07:43:20;;;;;;;3.75;3.00;;;;;;;18.88;52.00;97994.69;1224186;75;2928154;-70
2023/11/08 07:45:53;;;;;;;3.65;2.50;;;;;;;18.63;53.13;97998.75;1223528;75;2927216;-70
2023/11/08 07:48:28;;;;;;;4.15;2.30;;;;;;;17.79;54.47;97998.31;1221676;75;2921377;-68
2023/11/08 07:51:01;;;;;;;2.65;1.80;;;;;;;16.98;57.34;97993.09;1221603;75;2922131;-68
2023/11/08 07:53:34;;;;;;;3.45;2.30;;;;;;;19.01;54.40;97996.78;1224418;75;2920855;-72
2023/11/08 07:56:08;;;;;;;2.10;1.50;;;;;;;19.74;50.48;98001.25;1222143;75;2918586;-68
2023/11/08 07:58:41;;;;;;;2.20;1.60;;;;;;;20.24;50.02;97996.13;1223645;75;2924750;-68
2023/11/08 08:01:14;;;;;;;1.55;1.30;;;;;;;18.88;51.66;98005.03;1223571;75;2929162;-70
2023/11/08 08:03:50;;;;;;;3.75;1.40;;;;;;;19.38;52.13;97998.03;1223610;75;2919490;-68
2023/11/08 08:06:23;;;;;;;1.30;0.95;;;;;;;20.39;49.92;97990.75;1222858;75;2928482;-68
2023/11/08 08:08:57;;;;;;;1.60;1.10;;;;;;;20.58;49.30;97996.25;1223691;75;2927062;-71
2023/11/08 08:11:32;;;;;;;3.60;1.60;;;;;;;18.00;52.78;98003.47;1222362;75;2927883;-70
2023/11/08 08:14:04;;;;;;;2.40;1.30;;;;;;;15.93;58.79;98004.72;1222735;75;2922809;-67
2023/11/08 08:16:39;;;;;;;3.70;2.60;;;;;;;15.34;61.34;98003.69;1221994;75;2926252;-70
2023/11/08 08:19:14;;;;;;;3.00;1.70;;;;;;;14.45;62.77;98015.13;1220922;75;2928850;-70
2023/11/08 08:21:48;;;;;;;2.25;1.85;;;;;;;14.49;64.42;98010.16;1223123;75;2921926;-69
2023/11/08 08:24:21;;;;;;;7.20;3.15;;;;;;;12.48;74.59;98013.34;1223683;75;2919597;-68
2023/11/08 08:26:54;;;;;;;4.05;2.90;;;;;;;13.05;78.72;98012.75;1223186;75;2923103;-67
2023/11/08 08:29:27;;;;;;;5.65;3.00;;;;;;;12.42;82.81;98021.50;1223331;75;2930838;-69
2023/11/08 08:31:59;;;;;;;6.25;2.85;;;;;;;13.46;83.40;98022.94;1222569;75;2920228;-69
2023/11/08 08:34:35;;;;;;;4.70;2.80;;;;;;;13.08;84.02;98020.03;1223614;75;2921605;-68
2023/11/08 08:37:08;;;;;;;5.55;3.00;;;;;;;11.83;88.14;98019.63;1223591;75;2924154;-68
2023/11/08 08:39:40;;;;;;;6.10;4.75;;;;;;;11.64;95.53;98016.38;1223008;75;2923114;-71
2023/11/08 08:42:14;;;;;;;4.35;3.25;;;;;;;10.81;100.00;98025.34;1224139;75;2919438;-69
2023/11/08 08:44:47;;;;;;;3.90;2.80;;;;;;;11.04;100.00;98020.28;1219017;75;3199557;-68
2023/11/08 08:47:21;;;;;;;4.70;3.00;;;;;;;10.81;100.00;98027.31;1223242;75;2927756;-67
2023/11/08 08:49:58;;;;;;;4.40;3.05;;;;;;;11.34;100.00;98026.56;1223937;75;2936664;-67
2023/11/08 08:52:31;;;;;;;3.70;2.85;;;;;;;11.60;100.00;98021.28;1224773;75;2925737;-70
2023/11/08 08:55:04;;;;;;;5.05;3.10;;;;;;;10.62;100.00;98026.69;1224177;75;2924554;-68
2023/11/08 08:57:36;;;;;;;5.35;2.90;;;;;;;11.45;99.51;98028.75;1223786;75;2925350;-69
2023/11/08 09:00:12;;;;;;;3.70;2.00;;;;;;;11.91;88.64;98023.53;1223250;75;2920500;-70
2023/11/08 09:02:46;;;;;;;5.55;2.50;;;;;;;12.40;88.82;98023.22;1223869;75;2927417;-72
2023/11/08 09:05:22;;;;;;;6.60;3.20;;;;;;;12.87;78.65;98022.06;1136373;75;10108304;-70
2023/11/08 09:07:55;;;;;;;4.80;2.40;;;;;;;12.17;81.22;98011.19;1221848;75;2921327;-71
2023/11/08 09:10:28;;;;;;;3.90;2.70;;;;;;;12.62;80.19;98017.25;1224223;75;2922877;-70
2023/11/08 09:13:01;;;;;;;3.80;2.25;;;;;;;13.51;74.18;98006.47;1222923;75;2930427;-70
2023/11/08 09:15:36;;;;;;;3.20;1.65;;;;;;;14.70;70.69;98013.53;1222737;75;2934900;-68
2023/11/08 09:18:10;;;;;;;2.70;2.05;;;;;;;13.72;71.00;98011.91;1222677;75;2936882;-69
2023/11/08 09:20:47;;;;;;;3.15;2.20;;;;;;;14.38;67.79;98019.13;1224310;75;2924584;-67
2023/11/08 09:23:20;;;;;;;2.00;1.60;;;;;;;15.10;62.76;98015.16;1223547;75;2957557;-68
2023/11/08 09:25:53;;;;;;;2.75;1.45;;;;;;;15.14;61.43;98017.69;1224628;75;2923071;-70
2023/11/08 09:28:26;;;;;;;1.65;1.10;;;;;;;15.68;59.76;98017.50;1223587;75;2922533;-68
2023/11/08 09:30:59;;;;;;;1.95;1.20;;;;;;;14.10;60.35;98021.69;1223971;75;2920133;-71
2023/11/08 09:33:32;;;;;;;1.50;1.10;;;;;;;14.61;60.84;98020.00;1223422;75;2922589;-70
2023/11/08 09:36:08;;;;;;;1.30;1.05;;;;;;;14.09;60.88;98024.94;1223625;75;2922275;-70
2023/11/08 09:38:41;;;;;;;1.50;1.25;;;;;;;14.24;60.19;98022.78;1216143;75;3099401;-70
2023/11/08 09:41:14;;;;;;;1.40;0.95;;;;;;;14.74;58.91;98027.06;1223827;75;2921409;-71
2023/11/08 09:43:48;;;;;;;1.60;1.00;;;;;;;15.81;56.35;98019.78;1223142;75;2921793;-72
2023/11/08 09:46:21;;;;;;;1.85;1.00;;;;;;;15.59;56.72;98014.25;1224107;75;2916799;-69
2023/11/08 09:48:55;;;;;;;1.55;1.05;;;;;;;16.33;54.50;98012.91;1222857;75;2920151;-71
2023/11/08 09:51:31;;;;;;;1.40;1.00;;;;;;;16.39;53.83;98013.66;1221922;75;2956679;-70
2023/11/08 09:54:03;;;;;;;1.25;1.05;;;;;;;16.60;53.49;98006.56;1223729;75;2924977;-71
2023/11/08 09:56:37;;;;;;;3.00;1.20;;;;;;;16.92;52.73;97999.94;1224624;75;2921435;-70
2023/11/08 09:59:10;;;;;;;1.95;1.00;;;;;;;16.87;52.71;98006.97;1223300;75;2920219;-70
2023/11/08 10:01:45;;;;;;;1.10;1.00;;;;;;;16.74;51.99;98003.97;1225117;75;2920198;-68
2023/11/08 10:04:18;;;;;;;1.80;1.40;;;;;;;18.30;50.47;98004.16;1223837;75;2922337;-70
2023/11/08 10:06:54;;;;;;;1.10;0.85;;;;;;;17.65;49.16;98005.75;1223257;75;2917511;-71
2023/11/08 10:09:32;;;;;;;1.30;0.90;;;;;;;18.47;46.99;97995.66;1223810;75;2916148;-72
2023/11/08 10:12:08;;;;;;;3.90;1.80;;;;;;;18.56;47.56;98002.84;1222556;75;2925181;-71
2023/11/08 10:14:44;;;;;;;3.50;1.30;;;;;;;18.26;50.88;98009.25;1223936;75;2923987;-70
2023/11/08 10:17:18;;;;;;;3.30;1.30;;;;;;;17.63;50.09;98008.28;1223089;75;2918796;-68
2023/11/08 10:19:51;;;;;;;4.20;1.65;;;;;;;16.80;50.41;98002.72;1222193;75;2920530;-70
2023/11/08 10:22:27;;;;;;;2.50;1.20;;;;;;;17.00;48.70;98004.41;1221504;75;2944363;-72
2023/11/08 10:25:01;;;;;;;3.30;1.30;;;;;;;17.63;47.54;97999.19;1223085;75;2935159;-72
2023/11/08 10:27:36;;;;;;;1.15;0.80;;;;;;;18.94;46.11;97997.38;1222973;75;2922239;-69
2023/11/08 10:30:20;;;;;;;0.85;0.60;;;;;;;20.20;42.58;97984.56;1224185;75;2918578;-71
2023/11/08 10:32:53;;;;;;;1.45;0.70;;;;;;;21.05;42.26;97978.81;1224354;75;2914061;-72
2023/11/08 10:35:25;;;;;;;0.95;0.50;;;;;;;20.08;40.59;97981.22;1224167;75;2918658;-70
2023/11/08 10:38:02;;;;;;;1.75;0.70;;;;;;;19.28;41.67;97981.00;1224954;75;2918320;-68
2023/11/08 10:40:36;;;;;;;3.10;0.70;;;;;;;19.72;40.71;97978.06;1224056;75;2925502;-71
2023/11/08 10:43:09;;;;;;;0.50;0.50;;;;;;;19.67;39.00;97971.31;1224031;75;2934816;-69
2023/11/08 10:45:42;;;;;;;0.90;0.50;;;;;;;20.75;38.35;97973.63;1223222;75;2917409;-69
2023/11/08 10:48:16;;;;;;;0.50;0.50;;;;;;;21.98;38.63;97960.91;1224438;75;2913940;-70
2023/11/08 10:50:49;;;;;;;1.35;0.50;;;;;;;21.11;35.69;97964.78;1224263;75;2927409;-70
2023/11/08 10:53:25;;;;;;;0.90;0.55;;;;;;;20.58;37.15;97953.78;1223943;75;2919233;-69
2023/11/08 10:56:01;;;;;;;0.95;0.50;;;;;;;21.52;35.79;97948.66;1225567;75;2914600;-71
2023/11/08 10:58:43;;;;;;;0.50;0.40;;;;;;;18.22;39.61;97955.38;1224065;75;2914406;-71
2023/11/08 11:01:17;;;;;;;3.25;0.50;;;;;;;19.96;39.01;97950.16;1224531;75;2929479;-72
2023/11/08 11:03:54;;;;;;;0.30;0.20;;;;;;;21.49;37.82;97945.69;1219838;75;3053791;-72
2023/11/08 11:06:29;;;;;;;0.30;0.20;;;;;;;22.19;34.84;97943.41;1224510;75;2917124;-70
2023/11/08 11:09:10;;;;;;;1.35;0.35;;;;;;;23.21;33.55;97941.22;1223510;75;2926416;-71
2023/11/08 11:11:44;;;;;;;1.15;0.70;;;;;;;21.52;35.35;97929.91;1224291;75;2928658;-70
2023/11/08 11:14:31;;;;;;;0.60;0.30;;;;;;;23.08;32.45;97928.91;1223146;75;2933374;-70
2023/11/08 11:17:24;;;;;;;1.75;1.00;;;;;;;22.15;32.82;97935.38;1223889;75;2922162;-71
2023/11/08 11:20:03;;;;;;;0.90;0.60;;;;;;;22.69;32.14;97927.31;1224139;75;2925408;-67
2023/11/08 11:22:37;;;;;;;0.80;0.50;;;;;;;22.67;30.46;97927.84;1223914;75;2913832;-70
2023/11/08 11:25:14;;;;;;;1.15;0.40;;;;;;;23.11;30.38;97927.81;1223033;75;2922032;-71
2023/11/08 11:27:47;;;;;;;3.55;0.30;;;;;;;21.26;31.70;97936.34;1222182;75;2927457;-71
2023/11/08 11:30:32;;;;;;;1.00;0.30;;;;;;;20.53;32.63;97924.03;1222668;75;2925649;-70
2023/11/08 11:33:05;;;;;;;0.80;0.30;;;;;;;20.28;31.99;97929.81;1221934;75;2941207;-71
2023/11/08 11:36:02;;;;;;;0.75;0.30;;;;;;;21.06;31.41;97923.91;1223164;75;2921155;-69
2023/11/08 11:38:35;;;;;;;0.60;0.40;;;;;;;20.51;31.08;97932.88;1224526;75;2918240;-69
2023/11/08 11:41:26;;;;;;;1.30;0.40;;;;;;;19.34;32.30;97937.25;1223428;75;2928429;-73
2023/11/08 11:44:03;;;;;;;1.00;0.60;;;;;;;20.67;31.21;97935.91;1224629;75;2920552;-69
2023/11/08 11:46:37;;;;;;;0.30;0.10;;;;;;;18.20;33.26;97936.50;1223689;75;2922658;-68